Terminal Aerodrome Forecast
Issued by NWS St Louis, MO

Home | Current Version | Previous Version | Graphics & Text | Print | Product List | Glossary On
Versions: 1 2 3 4 5 6 7 8 9 10 11 12 13 14 15 16 17 18 19 20 21 22 23 24 25 26
800
FTUS43 KLSX 122119 AAA
TAFSTL
TAF AMD
KSTL 122119Z 1221/1324 28012KT P6SM SCT250
     FM130000 30006KT P6SM FEW250
     FM130400 24004KT P6SM FEW250
     FM131200 19005KT P6SM FEW080 WS012/24040KT
     FM131700 24009KT P6SM SCT250
     FM132000 27011G22KT P6SM SCT250=

USA.gov is the U.S. government's official web portal to all federal, state and local government web resources and services.